sensor_id;sensor_type;location;lat;lon;timestamp;pressure;altitude;pressure_sealevel;temperature;humidity
25232;BME280;13176;51.140;6.290;2023-12-20T00:00:07;100765.59;;;10.31;100.00
25232;BME280;13176;51.140;6.290;2023-12-20T00:02:34;100832.75;;;10.85;100.00
25232;BME280;13176;51.140;6.290;2023-12-20T00:05:01;100788.59;;;10.68;100.00
25232;BME280;13176;51.140;6.290;2023-12-20T00:07:27;100757.75;;;10.32;100.00
25232;BME280;13176;51.140;6.290;2023-12-20T00:09:54;100735.19;;;10.28;100.00
25232;BME280;13176;51.140;6.290;2023-12-20T00:12:21;100847.47;;;10.90;100.00
25232;BME280;13176;51.140;6.290;2023-12-20T00:14:47;100885.66;;;10.97;100.00
25232;BME280;13176;51.140;6.290;2023-12-20T00:17:13;100876.53;;;10.60;100.00
25232;BME280;13176;51.140;6.290;2023-12-20T00:19:40;100894.63;;;10.75;100.00
25232;BME280;13176;51.140;6.290;2023-12-20T00:22:07;100860.72;;;10.75;100.00
25232;BME280;13176;51.140;6.290;2023-12-20T00:24:33;100892.75;;;10.88;100.00
25232;BME280;13176;51.140;6.290;2023-12-20T00:27:00;100900.59;;;10.85;100.00
25232;BME280;13176;51.140;6.290;2023-12-20T00:29:27;100776.31;;;10.04;100.00
25232;BME280;13176;51.140;6.290;2023-12-20T00:31:53;100891.09;;;10.82;100.00
25232;BME280;13176;51.140;6.290;2023-12-20T00:34:19;100883.50;;;10.58;100.00
25232;BME280;13176;51.140;6.290;2023-12-20T00:36:46;100907.72;;;10.72;100.00
25232;BME280;13176;51.140;6.290;2023-12-20T00:39:13;100884.16;;;10.78;100.00
25232;BME280;13176;51.140;6.290;2023-12-20T00:41:40;100811.84;;;10.16;100.00
25232;BME280;13176;51.140;6.290;2023-12-20T00:44:06;100910.94;;;10.13;100.00
25232;BME280;13176;51.140;6.290;2023-12-20T00:46:32;100921.13;;;10.36;100.00
25232;BME280;13176;51.140;6.290;2023-12-20T00:49:02;100831.38;;;9.67;100.00
25232;BME280;13176;51.140;6.290;2023-12-20T00:51:28;100880.88;;;9.67;100.00
25232;BME280;13176;51.140;6.290;2023-12-20T00:53:55;100910.09;;;10.11;100.00
25232;BME280;13176;51.140;6.290;2023-12-20T00:56:21;100782.91;;;9.48;100.00
25232;BME280;13176;51.140;6.290;2023-12-20T00:58:48;100940.34;;;10.26;100.00
25232;BME280;13176;51.140;6.290;2023-12-20T01:01:17;100925.78;;;10.03;100.00
25232;BME280;13176;51.140;6.290;2023-12-20T01:03:44;100932.94;;;9.68;100.00
25232;BME280;13176;51.140;6.290;2023-12-20T01:06:11;100947.50;;;9.98;100.00
25232;BME280;13176;51.140;6.290;2023-12-20T01:08:37;100933.72;;;9.82;100.00
25232;BME280;13176;51.140;6.290;2023-12-20T01:11:04;100906.00;;;9.77;100.00
25232;BME280;13176;51.140;6.290;2023-12-20T01:13:31;100754.84;;;8.63;100.00
25232;BME280;13176;51.140;6.290;2023-12-20T01:15:58;100720.09;;;8.74;100.00
25232;BME280;13176;51.140;6.290;2023-12-20T01:18:25;100791.94;;;8.95;100.00
25232;BME280;13176;51.140;6.290;2023-12-20T01:20:51;100811.69;;;9.30;100.00
25232;BME280;13176;51.140;6.290;2023-12-20T01:23:18;100942.34;;;9.92;100.00
25232;BME280;13176;51.140;6.290;2023-12-20T01:25:46;100951.91;;;9.90;100.00
25232;BME280;13176;51.140;6.290;2023-12-20T01:28:12;100934.56;;;9.87;100.00
25232;BME280;13176;51.140;6.290;2023-12-20T01:30:39;100669.22;;;8.37;100.00
25232;BME280;13176;51.140;6.290;2023-12-20T01:33:06;100939.94;;;9.63;100.00
25232;BME280;13176;51.140;6.290;2023-12-20T01:35:32;100923.44;;;9.66;100.00
25232;BME280;13176;51.140;6.290;2023-12-20T01:37:59;100939.81;;;9.81;100.00
25232;BME280;13176;51.140;6.290;2023-12-20T01:40:25;100833.47;;;9.14;100.00
25232;BME280;13176;51.140;6.290;2023-12-20T01:43:06;100955.41;;;9.90;100.00
25232;BME280;13176;51.140;6.290;2023-12-20T01:45:35;100827.38;;;9.19;100.00
25232;BME280;13176;51.140;6.290;2023-12-20T01:48:02;100833.66;;;8.81;100.00
25232;BME280;13176;51.140;6.290;2023-12-20T01:50:30;100936.41;;;9.72;99.87
25232;BME280;13176;51.140;6.290;2023-12-20T01:52:59;100940.81;;;9.61;100.00
25232;BME280;13176;51.140;6.290;2023-12-20T01:55:27;100908.03;;;9.30;100.00
25232;BME280;13176;51.140;6.290;2023-12-20T01:57:56;100961.66;;;9.64;100.00
25232;BME280;13176;51.140;6.290;2023-12-20T02:00:23;100799.13;;;8.46;100.00
25232;BME280;13176;51.140;6.290;2023-12-20T02:02:53;100965.97;;;9.65;99.46
25232;BME280;13176;51.140;6.290;2023-12-20T02:05:21;100954.84;;;9.36;100.00
25232;BME280;13176;51.140;6.290;2023-12-20T02:07:47;100947.03;;;9.37;100.00
25232;BME280;13176;51.140;6.290;2023-12-20T02:10:15;100956.69;;;9.13;100.00
25232;BME280;13176;51.140;6.290;2023-12-20T02:12:42;100927.13;;;9.29;100.00
25232;BME280;13176;51.140;6.290;2023-12-20T02:15:08;100798.22;;;8.62;100.00
25232;BME280;13176;51.140;6.290;2023-12-20T02:17:36;100954.84;;;9.42;100.00
25232;BME280;13176;51.140;6.290;2023-12-20T02:20:04;100958.19;;;9.59;100.00
25232;BME280;13176;51.140;6.290;2023-12-20T02:22:32;100958.34;;;9.29;100.00
25232;BME280;13176;51.140;6.290;2023-12-20T02:24:58;100944.50;;;9.24;100.00
25232;BME280;13176;51.140;6.290;2023-12-20T02:27:25;100949.81;;;8.97;100.00
25232;BME280;13176;51.140;6.290;2023-12-20T02:29:51;100960.22;;;9.03;100.00
25232;BME280;13176;51.140;6.290;2023-12-20T02:32:18;100966.25;;;9.06;100.00
25232;BME280;13176;51.140;6.290;2023-12-20T02:34:47;100913.47;;;8.73;100.00
25232;BME280;13176;51.140;6.290;2023-12-20T02:37:14;100683.28;;;7.77;100.00
25232;BME280;13176;51.140;6.290;2023-12-20T02:39:41;100937.59;;;9.14;100.00
25232;BME280;13176;51.140;6.290;2023-12-20T02:42:07;100928.22;;;8.70;100.00
25232;BME280;13176;51.140;6.290;2023-12-20T02:44:34;100961.94;;;9.02;100.00
25232;BME280;13176;51.140;6.290;2023-12-20T02:47:00;100927.38;;;8.59;100.00
25232;BME280;13176;51.140;6.290;2023-12-20T02:49:26;100801.00;;;7.85;100.00
25232;BME280;13176;51.140;6.290;2023-12-20T02:51:53;100781.97;;;7.91;100.00
25232;BME280;13176;51.140;6.290;2023-12-20T02:54:20;100941.25;;;8.68;100.00
25232;BME280;13176;51.140;6.290;2023-12-20T02:56:47;100958.50;;;8.87;100.00
25232;BME280;13176;51.140;6.290;2023-12-20T02:59:13;100974.13;;;8.93;100.00
25232;BME280;13176;51.140;6.290;2023-12-20T03:01:46;100963.72;;;8.84;100.00
25232;BME280;13176;51.140;6.290;2023-12-20T03:04:12;100967.19;;;8.86;100.00
25232;BME280;13176;51.140;6.290;2023-12-20T03:06:39;100779.34;;;8.00;100.00
25232;BME280;13176;51.140;6.290;2023-12-20T03:09:06;100861.50;;;8.55;100.00
25232;BME280;13176;51.140;6.290;2023-12-20T03:11:32;100823.50;;;7.94;100.00
25232;BME280;13176;51.140;6.290;2023-12-20T03:13:59;100954.03;;;9.22;100.00
25232;BME280;13176;51.140;6.290;2023-12-20T03:16:25;100929.91;;;8.75;100.00
25232;BME280;13176;51.140;6.290;2023-12-20T03:18:52;100866.66;;;8.73;100.00
25232;BME280;13176;51.140;6.290;2023-12-20T03:21:18;100667.81;;;7.29;100.00
25232;BME280;13176;51.140;6.290;2023-12-20T03:23:45;100813.06;;;8.30;100.00
25232;BME280;13176;51.140;6.290;2023-12-20T03:26:11;100920.38;;;8.85;100.00
25232;BME280;13176;51.140;6.290;2023-12-20T03:28:38;100851.06;;;8.70;100.00
25232;BME280;13176;51.140;6.290;2023-12-20T03:31:05;100915.22;;;8.68;100.00
25232;BME280;13176;51.140;6.290;2023-12-20T03:33:31;100928.09;;;9.05;100.00
25232;BME280;13176;51.140;6.290;2023-12-20T03:35:58;100936.78;;;8.96;100.00
25232;BME280;13176;51.140;6.290;2023-12-20T03:38:24;100955.91;;;8.81;100.00
25232;BME280;13176;51.140;6.290;2023-12-20T03:40:51;100987.03;;;9.24;100.00
25232;BME280;13176;51.140;6.290;2023-12-20T03:43:18;100707.63;;;7.35;100.00
25232;BME280;13176;51.140;6.290;2023-12-20T03:45:44;100929.13;;;8.58;100.00
25232;BME280;13176;51.140;6.290;2023-12-20T03:48:11;100825.22;;;8.25;100.00
25232;BME280;13176;51.140;6.290;2023-12-20T03:50:37;100942.94;;;8.75;100.00
25232;BME280;13176;51.140;6.290;2023-12-20T03:53:03;100889.22;;;8.68;100.00
25232;BME280;13176;51.140;6.290;2023-12-20T03:55:30;100765.50;;;7.81;100.00
25232;BME280;13176;51.140;6.290;2023-12-20T03:57:56;100942.09;;;8.66;100.00
25232;BME280;13176;51.140;6.290;2023-12-20T04:00:23;100899.66;;;8.56;100.00
25232;BME280;13176;51.140;6.290;2023-12-20T04:02:49;100762.94;;;7.82;100.00
25232;BME280;13176;51.140;6.290;2023-12-20T04:05:16;100949.03;;;8.61;100.00
25232;BME280;13176;51.140;6.290;2023-12-20T04:07:42;100931.63;;;8.88;100.00
25232;BME280;13176;51.140;6.290;2023-12-20T04:10:10;100820.03;;;7.98;100.00
25232;BME280;13176;51.140;6.290;2023-12-20T04:12:37;100816.59;;;7.88;100.00
25232;BME280;13176;51.140;6.290;2023-12-20T04:15:04;100917.81;;;8.71;100.00
25232;BME280;13176;51.140;6.290;2023-12-20T04:17:36;100820.06;;;7.84;100.00
25232;BME280;13176;51.140;6.290;2023-12-20T04:20:03;100904.88;;;8.41;100.00
25232;BME280;13176;51.140;6.290;2023-12-20T04:22:30;100886.59;;;8.67;100.00
25232;BME280;13176;51.140;6.290;2023-12-20T04:24:57;100852.94;;;8.26;100.00
25232;BME280;13176;51.140;6.290;2023-12-20T04:27:23;100932.56;;;8.72;100.00
25232;BME280;13176;51.140;6.290;2023-12-20T04:29:50;100927.41;;;8.12;100.00
25232;BME280;13176;51.140;6.290;2023-12-20T04:32:16;100957.72;;;8.67;100.00
25232;BME280;13176;51.140;6.290;2023-12-20T04:34:43;100849.44;;;8.03;100.00
25232;BME280;13176;51.140;6.290;2023-12-20T04:37:12;100841.72;;;7.78;100.00
25232;BME280;13176;51.140;6.290;2023-12-20T04:39:38;100931.75;;;8.51;100.00
25232;BME280;13176;51.140;6.290;2023-12-20T04:42:07;100961.22;;;8.50;100.00
25232;BME280;13176;51.140;6.290;2023-12-20T04:44:33;100660.03;;;6.56;100.00
25232;BME280;13176;51.140;6.290;2023-12-20T04:47:00;100948.22;;;8.33;100.00
25232;BME280;13176;51.140;6.290;2023-12-20T04:49:26;100875.44;;;7.77;100.00
25232;BME280;13176;51.140;6.290;2023-12-20T04:51:55;100796.69;;;7.58;100.00
25232;BME280;13176;51.140;6.290;2023-12-20T04:54:22;100957.75;;;8.21;100.00
25232;BME280;13176;51.140;6.290;2023-12-20T04:56:49;100913.56;;;8.19;100.00
25232;BME280;13176;51.140;6.290;2023-12-20T04:59:16;100967.25;;;8.62;100.00
25232;BME280;13176;51.140;6.290;2023-12-20T05:01:42;100900.56;;;8.36;100.00
25232;BME280;13176;51.140;6.290;2023-12-20T05:04:09;100939.53;;;8.55;100.00
25232;BME280;13176;51.140;6.290;2023-12-20T05:06:35;100949.06;;;8.46;100.00
25232;BME280;13176;51.140;6.290;2023-12-20T05:09:02;100975.06;;;8.53;100.00
25232;BME280;13176;51.140;6.290;2023-12-20T05:11:28;100910.13;;;8.23;100.00
25232;BME280;13176;51.140;6.290;2023-12-20T05:13:55;100973.31;;;8.67;100.00
25232;BME280;13176;51.140;6.290;2023-12-20T05:16:34;100972.44;;;8.65;100.00
25232;BME280;13176;51.140;6.290;2023-12-20T05:19:08;100788.00;;;7.86;100.00
25232;BME280;13176;51.140;6.290;2023-12-20T05:21:48;100904.03;;;8.41;100.00
25232;BME280;13176;51.140;6.290;2023-12-20T05:24:15;100918.72;;;8.55;100.00
25232;BME280;13176;51.140;6.290;2023-12-20T05:26:42;100703.31;;;7.27;100.00
25232;BME280;13176;51.140;6.290;2023-12-20T05:29:08;100934.31;;;8.61;100.00
25232;BME280;13176;51.140;6.290;2023-12-20T05:31:35;100928.25;;;8.59;100.00
25232;BME280;13176;51.140;6.290;2023-12-20T05:34:01;100766.44;;;7.65;100.00
25232;BME280;13176;51.140;6.290;2023-12-20T05:36:28;100844.25;;;8.12;100.00
25232;BME280;13176;51.140;6.290;2023-12-20T05:38:55;100917.03;;;8.30;100.00
25232;BME280;13176;51.140;6.290;2023-12-20T05:41:21;100928.16;;;8.86;100.00
25232;BME280;13176;51.140;6.290;2023-12-20T05:43:48;100894.53;;;8.17;100.00
25232;BME280;13176;51.140;6.290;2023-12-20T05:46:14;100820.06;;;7.92;100.00
25232;BME280;13176;51.140;6.290;2023-12-20T05:48:41;100749.13;;;7.40;100.00
25232;BME280;13176;51.140;6.290;2023-12-20T05:51:07;100935.19;;;8.63;100.00
25232;BME280;13176;51.140;6.290;2023-12-20T05:53:38;100821.75;;;8.08;100.00
25232;BME280;13176;51.140;6.290;2023-12-20T05:56:04;100742.13;;;7.87;100.00
25232;BME280;13176;51.140;6.290;2023-12-20T05:58:32;100915.25;;;8.41;100.00
25232;BME280;13176;51.140;6.290;2023-12-20T06:00:59;100939.38;;;9.09;100.00
25232;BME280;13176;51.140;6.290;2023-12-20T06:03:26;100775.03;;;7.67;100.00
25232;BME280;13176;51.140;6.290;2023-12-20T06:05:52;100950.75;;;8.71;100.00
25232;BME280;13176;51.140;6.290;2023-12-20T06:08:28;100952.44;;;8.90;100.00
25232;BME280;13176;51.140;6.290;2023-12-20T06:10:55;100933.41;;;8.70;100.00
25232;BME280;13176;51.140;6.290;2023-12-20T06:13:21;100906.66;;;8.27;100.00
25232;BME280;13176;51.140;6.290;2023-12-20T06:15:47;100955.09;;;8.70;100.00
25232;BME280;13176;51.140;6.290;2023-12-20T06:18:14;100829.56;;;7.90;100.00
25232;BME280;13176;51.140;6.290;2023-12-20T06:20:41;100941.19;;;8.79;100.00
25232;BME280;13176;51.140;6.290;2023-12-20T06:23:07;100985.28;;;9.19;100.00
25232;BME280;13176;51.140;6.290;2023-12-20T06:25:34;100832.13;;;8.11;100.00
25232;BME280;13176;51.140;6.290;2023-12-20T06:28:00;100972.34;;;8.94;100.00
25232;BME280;13176;51.140;6.290;2023-12-20T06:30:27;100972.41;;;8.74;100.00
25232;BME280;13176;51.140;6.290;2023-12-20T06:32:54;100865.06;;;8.30;100.00
25232;BME280;13176;51.140;6.290;2023-12-20T06:35:21;100946.28;;;9.13;100.00
25232;BME280;13176;51.140;6.290;2023-12-20T06:37:50;100949.00;;;8.76;100.00
25232;BME280;13176;51.140;6.290;2023-12-20T06:40:16;100960.25;;;8.85;100.00
25232;BME280;13176;51.140;6.290;2023-12-20T06:42:46;100951.56;;;8.86;100.00
25232;BME280;13176;51.140;6.290;2023-12-20T06:45:30;100900.53;;;8.51;100.00
25232;BME280;13176;51.140;6.290;2023-12-20T06:47:56;100973.25;;;8.91;100.00
25232;BME280;13176;51.140;6.290;2023-12-20T06:50:23;100951.47;;;9.13;99.01
25232;BME280;13176;51.140;6.290;2023-12-20T06:52:50;100836.47;;;8.06;100.00
25232;BME280;13176;51.140;6.290;2023-12-20T06:55:19;100938.53;;;8.98;99.27
25232;BME280;13176;51.140;6.290;2023-12-20T06:57:45;100908.25;;;8.76;99.11
25232;BME280;13176;51.140;6.290;2023-12-20T07:00:13;100960.91;;;9.41;97.70
25232;BME280;13176;51.140;6.290;2023-12-20T07:02:39;100966.31;;;8.90;99.13
25232;BME280;13176;51.140;6.290;2023-12-20T07:05:06;100963.63;;;9.14;99.17
25232;BME280;13176;51.140;6.290;2023-12-20T07:07:33;100906.56;;;8.60;100.00
25232;BME280;13176;51.140;6.290;2023-12-20T07:09:59;100852.84;;;8.53;98.85
25232;BME280;13176;51.140;6.290;2023-12-20T07:12:26;100941.13;;;9.02;98.29
25232;BME280;13176;51.140;6.290;2023-12-20T07:14:53;100905.75;;;8.51;99.78
25232;BME280;13176;51.140;6.290;2023-12-20T07:17:19;100927.25;;;8.99;98.69
25232;BME280;13176;51.140;6.290;2023-12-20T07:19:45;100937.66;;;9.05;98.22
25232;BME280;13176;51.140;6.290;2023-12-20T07:22:12;100947.13;;;9.18;97.44
25232;BME280;13176;51.140;6.290;2023-12-20T07:24:39;100944.69;;;8.73;99.87
25232;BME280;13176;51.140;6.290;2023-12-20T07:27:06;100949.84;;;8.91;98.98
25232;BME280;13176;51.140;6.290;2023-12-20T07:29:33;100959.41;;;8.82;99.31
25232;BME280;13176;51.140;6.290;2023-12-20T07:31:59;100670.44;;;7.17;98.82
25232;BME280;13176;51.140;6.290;2023-12-20T07:34:26;100935.13;;;8.83;98.13
25232;BME280;13176;51.140;6.290;2023-12-20T07:36:52;100839.06;;;8.12;98.87
25232;BME280;13176;51.140;6.290;2023-12-20T07:39:19;100830.44;;;7.81;99.42
25232;BME280;13176;51.140;6.290;2023-12-20T07:41:46;100981.09;;;8.57;100.00
25232;BME280;13176;51.140;6.290;2023-12-20T07:44:12;100943.00;;;8.39;99.51
25232;BME280;13176;51.140;6.290;2023-12-20T07:46:39;100843.41;;;8.00;97.59
25232;BME280;13176;51.140;6.290;2023-12-20T07:49:05;100787.19;;;7.65;97.91
25232;BME280;13176;51.140;6.290;2023-12-20T07:51:32;100825.25;;;7.51;100.00
25232;BME280;13176;51.140;6.290;2023-12-20T07:53:58;100848.59;;;8.06;98.69
25232;BME280;13176;51.140;6.290;2023-12-20T07:56:25;100964.66;;;8.59;98.94
25232;BME280;13176;51.140;6.290;2023-12-20T07:58:51;100904.91;;;8.28;98.65
25232;BME280;13176;51.140;6.290;2023-12-20T08:01:20;100822.63;;;7.94;97.80
25232;BME280;13176;51.140;6.290;2023-12-20T08:03:49;100962.06;;;8.59;99.35
25232;BME280;13176;51.140;6.290;2023-12-20T08:06:16;100836.47;;;7.87;99.10
25232;BME280;13176;51.140;6.290;2023-12-20T08:08:44;100814.88;;;7.45;100.00
25232;BME280;13176;51.140;6.290;2023-12-20T08:11:28;100826.97;;;7.82;99.15
25232;BME280;13176;51.140;6.290;2023-12-20T08:13:55;100859.00;;;7.87;98.88
25232;BME280;13176;51.140;6.290;2023-12-20T08:16:21;100958.63;;;8.33;99.35
25232;BME280;13176;51.140;6.290;2023-12-20T08:18:48;100923.94;;;8.46;98.83
25232;BME280;13176;51.140;6.290;2023-12-20T08:21:14;100985.47;;;8.44;100.00
25232;BME280;13176;51.140;6.290;2023-12-20T08:23:41;100776.78;;;7.38;99.44
25232;BME280;13176;51.140;6.290;2023-12-20T08:26:07;100960.31;;;8.52;99.47
25232;BME280;13176;51.140;6.290;2023-12-20T08:28:34;100956.91;;;8.32;99.66
25232;BME280;13176;51.140;6.290;2023-12-20T08:31:00;100834.78;;;7.96;98.89
25232;BME280;13176;51.140;6.290;2023-12-20T08:33:27;100829.56;;;7.67;98.80
25232;BME280;13176;51.140;6.290;2023-12-20T08:35:54;100975.84;;;8.88;97.26
25232;BME280;13176;51.140;6.290;2023-12-20T08:38:20;100822.66;;;7.78;98.16
25232;BME280;13176;51.140;6.290;2023-12-20T08:40:47;100975.88;;;8.76;97.83
25232;BME280;13176;51.140;6.290;2023-12-20T08:43:14;100857.25;;;7.96;98.23
25232;BME280;13176;51.140;6.290;2023-12-20T08:45:41;100854.69;;;7.86;98.61
25232;BME280;13176;51.140;6.290;2023-12-20T08:48:08;100814.88;;;7.63;98.59
25232;BME280;13176;51.140;6.290;2023-12-20T08:50:35;100932.59;;;8.45;97.51
25232;BME280;13176;51.140;6.290;2023-12-20T08:53:03;100883.22;;;8.47;96.05
25232;BME280;13176;51.140;6.290;2023-12-20T08:55:29;100935.97;;;8.80;96.67
25232;BME280;13176;51.140;6.290;2023-12-20T08:57:58;100965.53;;;8.52;97.84
25232;BME280;13176;51.140;6.290;2023-12-20T09:00:25;100875.44;;;8.14;97.25
25232;BME280;13176;51.140;6.290;2023-12-20T09:02:54;100891.94;;;8.19;98.79
25232;BME280;13176;51.140;6.290;2023-12-20T09:05:21;100871.91;;;8.58;95.98
25232;BME280;13176;51.140;6.290;2023-12-20T09:07:48;100797.53;;;7.97;95.96
25232;BME280;13176;51.140;6.290;2023-12-20T09:10:15;100848.63;;;7.95;98.14
25232;BME280;13176;51.140;6.290;2023-12-20T09:12:44;100811.41;;;7.90;96.94
25232;BME280;13176;51.140;6.290;2023-12-20T09:15:13;100956.78;;;8.89;97.06
25232;BME280;13176;51.140;6.290;2023-12-20T09:17:40;100751.69;;;7.56;97.11
25232;BME280;13176;51.140;6.290;2023-12-20T09:20:08;100872.84;;;8.09;96.96
25232;BME280;13176;51.140;6.290;2023-12-20T09:22:35;100869.38;;;8.31;97.43
25232;BME280;13176;51.140;6.290;2023-12-20T09:25:01;100896.09;;;8.78;96.34
25232;BME280;13176;51.140;6.290;2023-12-20T09:27:28;100857.94;;;8.83;94.50
25232;BME280;13176;51.140;6.290;2023-12-20T09:29:55;100818.16;;;8.57;94.36
25232;BME280;13176;51.140;6.290;2023-12-20T09:32:21;100826.88;;;8.47;95.66
25232;BME280;13176;51.140;6.290;2023-12-20T09:34:48;100823.38;;;8.51;94.57
25232;BME280;13176;51.140;6.290;2023-12-20T09:37:15;100909.94;;;8.95;94.97
25232;BME280;13176;51.140;6.290;2023-12-20T09:39:41;100771.47;;;8.33;94.05
25232;BME280;13176;51.140;6.290;2023-12-20T09:42:11;100812.13;;;8.46;94.66
25232;BME280;13176;51.140;6.290;2023-12-20T09:44:37;100963.59;;;9.20;94.75
25232;BME280;13176;51.140;6.290;2023-12-20T09:47:08;100961.13;;;8.86;95.58
25232;BME280;13176;51.140;6.290;2023-12-20T09:49:35;100804.41;;;8.04;95.83
25232;BME280;13176;51.140;6.290;2023-12-20T09:52:04;100937.72;;;8.92;96.03
25232;BME280;13176;51.140;6.290;2023-12-20T09:54:32;100965.19;;;9.48;94.00
25232;BME280;13176;51.140;6.290;2023-12-20T09:56:58;100862.31;;;8.71;94.38
25232;BME280;13176;51.140;6.290;2023-12-20T09:59:25;100929.81;;;9.06;94.48
25232;BME280;13176;51.140;6.290;2023-12-20T10:01:55;100977.41;;;9.37;94.30
25232;BME280;13176;51.140;6.290;2023-12-20T10:04:24;100852.94;;;8.26;95.31
25232;BME280;13176;51.140;6.290;2023-12-20T10:06:56;100967.03;;;9.28;95.00
25232;BME280;13176;51.140;6.290;2023-12-20T10:09:23;100859.78;;;8.57;94.98
25232;BME280;13176;51.140;6.290;2023-12-20T10:11:54;100951.63;;;8.68;97.26
25232;BME280;13176;51.140;6.290;2023-12-20T10:14:21;100949.81;;;9.03;95.50
25232;BME280;13176;51.140;6.290;2023-12-20T10:16:49;100947.97;;;9.23;94.08
25232;BME280;13176;51.140;6.290;2023-12-20T10:19:17;100973.22;;;8.96;95.79
25232;BME280;13176;51.140;6.290;2023-12-20T10:21:44;100935.94;;;9.01;95.10
25232;BME280;13176;51.140;6.290;2023-12-20T10:24:17;100956.66;;;9.16;94.94
25232;BME280;13176;51.140;6.290;2023-12-20T10:26:43;100878.59;;;9.13;93.07
25232;BME280;13176;51.140;6.290;2023-12-20T10:29:09;100922.06;;;8.93;94.82
25232;BME280;13176;51.140;6.290;2023-12-20T10:31:36;100946.22;;;9.22;95.28
25232;BME280;13176;51.140;6.290;2023-12-20T10:34:05;100928.78;;;9.45;93.13
25232;BME280;13176;51.140;6.290;2023-12-20T10:36:33;100945.03;;;9.81;92.14
25232;BME280;13176;51.140;6.290;2023-12-20T10:38:59;100939.84;;;9.80;91.63
25232;BME280;13176;51.140;6.290;2023-12-20T10:41:29;100958.41;;;9.17;93.94
25232;BME280;13176;51.140;6.290;2023-12-20T10:44:02;100926.09;;;9.54;92.96
25232;BME280;13176;51.140;6.290;2023-12-20T10:46:30;100949.56;;;9.48;93.70
25232;BME280;13176;51.140;6.290;2023-12-20T10:48:57;100929.84;;;8.98;94.93
25232;BME280;13176;51.140;6.290;2023-12-20T10:51:24;100902.78;;;9.33;94.17
25232;BME280;13176;51.140;6.290;2023-12-20T10:53:53;100873.16;;;9.49;92.24
25232;BME280;13176;51.140;6.290;2023-12-20T10:56:20;100782.41;;;8.98;92.22
25232;BME280;13176;51.140;6.290;2023-12-20T10:58:50;100929.50;;;9.65;92.88
25232;BME280;13176;51.140;6.290;2023-12-20T11:01:19;100938.19;;;9.64;93.46
25232;BME280;13176;51.140;6.290;2023-12-20T11:03:53;100847.25;;;9.34;91.66
25232;BME280;13176;51.140;6.290;2023-12-20T11:06:27;100928.63;;;9.66;93.16
25232;BME280;13176;51.140;6.290;2023-12-20T11:09:17;100919.97;;;9.61;92.99
25232;BME280;13176;51.140;6.290;2023-12-20T11:11:51;100924.25;;;9.74;92.36
25232;BME280;13176;51.140;6.290;2023-12-20T11:14:23;100765.94;;;8.99;91.83
25232;BME280;13176;51.140;6.290;2023-12-20T11:17:05;100872.44;;;9.32;93.60
25232;BME280;13176;51.140;6.290;2023-12-20T11:19:32;100888.19;;;9.05;95.29
25232;BME280;13176;51.140;6.290;2023-12-20T11:21:58;100729.91;;;8.30;94.66
25232;BME280;13176;51.140;6.290;2023-12-20T11:24:25;100905.22;;;9.60;93.22
25232;BME280;13176;51.140;6.290;2023-12-20T11:26:55;100864.31;;;9.77;91.42
25232;BME280;13176;51.140;6.290;2023-12-20T11:29:35;100900.06;;;9.54;93.05
25232;BME280;13176;51.140;6.290;2023-12-20T11:32:02;100907.78;;;9.69;93.56
25232;BME280;13176;51.140;6.290;2023-12-20T11:34:33;100812.63;;;9.17;91.56
25232;BME280;13176;51.140;6.290;2023-12-20T11:37:02;100778.03;;;9.06;90.81
25232;BME280;13176;51.140;6.290;2023-12-20T11:39:30;100701.88;;;8.77;91.44
25232;BME280;13176;51.140;6.290;2023-12-20T11:41:57;100763.38;;;8.92;92.63
25232;BME280;13176;51.140;6.290;2023-12-20T11:44:30;100890.47;;;9.60;93.38
25232;BME280;13176;51.140;6.290;2023-12-20T11:46:57;100629.44;;;8.23;93.10
25232;BME280;13176;51.140;6.290;2023-12-20T11:49:24;100736.38;;;9.06;92.40
25232;BME280;13176;51.140;6.290;2023-12-20T11:51:51;100835.19;;;9.18;94.11
25232;BME280;13176;51.140;6.290;2023-12-20T11:54:18;100900.38;;;9.00;98.16
25232;BME280;13176;51.140;6.290;2023-12-20T11:56:46;100848.19;;;9.18;96.09
25232;BME280;13176;51.140;6.290;2023-12-20T11:59:13;100762.53;;;8.82;95.51
25232;BME280;13176;51.140;6.290;2023-12-20T12:01:50;100893.16;;;9.47;96.93
25232;BME280;13176;51.140;6.290;2023-12-20T12:04:17;100877.50;;;9.51;97.54
25232;BME280;13176;51.140;6.290;2023-12-20T12:06:44;100845.50;;;9.39;96.45
25232;BME280;13176;51.140;6.290;2023-12-20T12:09:12;100601.19;;;7.46;98.13
25232;BME280;13176;51.140;6.290;2023-12-20T12:11:41;100880.25;;;9.32;98.24
25232;BME280;13176;51.140;6.290;2023-12-20T12:14:08;100855.75;;;9.57;96.36
25232;BME280;13176;51.140;6.290;2023-12-20T12:16:37;100799.63;;;9.17;96.25
25232;BME280;13176;51.140;6.290;2023-12-20T12:19:06;100567.31;;;7.73;96.88
25232;BME280;13176;51.140;6.290;2023-12-20T12:21:33;100778.88;;;9.08;96.77
25232;BME280;13176;51.140;6.290;2023-12-20T12:24:07;100869.34;;;9.95;95.17
25232;BME280;13176;51.140;6.290;2023-12-20T12:26:34;100872.97;;;9.79;96.36
25232;BME280;13176;51.140;6.290;2023-12-20T12:29:03;100829.44;;;9.87;94.96
25232;BME280;13176;51.140;6.290;2023-12-20T12:31:30;100741.47;;;9.18;95.66
25232;BME280;13176;51.140;6.290;2023-12-20T12:33:57;100850.47;;;9.69;96.27
25232;BME280;13176;51.140;6.290;2023-12-20T12:36:23;100665.38;;;8.92;95.17
25232;BME280;13176;51.140;6.290;2023-12-20T12:38:50;100805.47;;;9.49;97.08
25232;BME280;13176;51.140;6.290;2023-12-20T12:41:17;100830.44;;;9.74;97.10
25232;BME280;13176;51.140;6.290;2023-12-20T12:43:43;100744.88;;;9.29;96.65
25232;BME280;13176;51.140;6.290;2023-12-20T12:46:10;100686.25;;;8.83;98.38
25232;BME280;13176;51.140;6.290;2023-12-20T12:48:37;100835.03;;;9.45;98.52
25232;BME280;13176;51.140;6.290;2023-12-20T12:51:04;100833.16;;;9.59;100.00
25232;BME280;13176;51.140;6.290;2023-12-20T12:53:31;100786.28;;;9.59;97.92